createdAt,value
2019-04-19T00:00:54.441Z,11.95
2019-04-19T00:03:24.318Z,11.83
2019-04-19T00:06:13.666Z,11.63
2019-04-19T00:08:55.419Z,11.61
2019-04-19T00:11:18.907Z,11.72
2019-04-19T00:13:37.245Z,11.59
2019-04-19T00:16:06.749Z,11.62
2019-04-19T00:18:37.849Z,11.50
2019-04-19T00:21:24.040Z,11.36
2019-04-19T00:23:40.817Z,11.53
2019-04-19T00:26:06.150Z,11.43
2019-04-19T00:28:42.538Z,11.63
2019-04-19T00:31:21.551Z,11.80
2019-04-19T00:33:41.698Z,11.65
2019-04-19T00:36:07.132Z,11.70
2019-04-19T00:38:46.768Z,11.74
2019-04-19T00:41:25.626Z,11.71
2019-04-19T00:43:56.275Z,12.11
2019-04-19T00:46:35.403Z,12.22
2019-04-19T00:49:02.817Z,12.06
2019-04-19T00:51:29.350Z,12.03
2019-04-19T00:54:04.222Z,11.95
2019-04-19T00:56:31.267Z,11.96
2019-04-19T00:58:56.560Z,11.88
2019-04-19T01:01:24.168Z,11.97
2019-04-19T01:03:51.091Z,12.45
2019-04-19T01:06:21.884Z,12.54
2019-04-19T01:08:59.234Z,12.77
2019-04-19T01:11:31.445Z,12.64
2019-04-19T01:14:01.358Z,12.60
2019-04-19T01:16:29.695Z,12.60
2019-04-19T01:18:58.066Z,12.70
2019-04-19T01:21:19.877Z,12.51
2019-04-19T01:23:54.043Z,12.47
2019-04-19T01:26:18.683Z,12.34
2019-04-19T01:28:53.598Z,12.24
2019-04-19T01:31:22.471Z,12.16
2019-04-19T01:33:49.147Z,12.09
2019-04-19T01:36:25.198Z,12.03
2019-04-19T01:38:58.069Z,11.96
2019-04-19T01:41:33.736Z,11.85
2019-04-19T01:44:07.004Z,11.69
2019-04-19T01:46:40.867Z,11.65
2019-04-19T01:49:11.924Z,11.75
2019-04-19T01:52:08.365Z,11.57
2019-04-19T01:54:38.398Z,11.73
2019-04-19T01:56:57.376Z,11.76
2019-04-19T01:59:24.809Z,11.94
2019-04-19T02:02:00.549Z,11.75
2019-04-19T02:04:26.173Z,11.82
2019-04-19T02:06:52.984Z,11.64
2019-04-19T02:09:33.915Z,11.73
2019-04-19T02:12:16.935Z,11.59
2019-04-19T02:14:38.525Z,11.62
2019-04-19T02:17:04.442Z,11.56
2019-04-19T02:19:31.361Z,11.42
2019-04-19T02:22:02.080Z,11.32
2019-04-19T02:24:35.179Z,11.15
2019-04-19T02:27:03.416Z,11.13
2019-04-19T02:29:31.649Z,10.91
2019-04-19T02:42:32.982Z,10.75
2019-04-19T02:49:57.933Z,10.51
2019-04-19T02:52:33.203Z,10.52
2019-04-19T03:00:13.448Z,10.43
2019-04-19T03:05:11.160Z,10.33
2019-04-19T03:07:11.386Z,10.14
2019-04-19T03:09:43.227Z,10.07
2019-04-19T03:12:33.249Z,10.05
2019-04-19T03:14:52.343Z,10.00
2019-04-19T03:17:30.785Z,10.01
2019-04-19T03:19:54.193Z,9.93
2019-04-19T03:22:48.698Z,9.80
2019-04-19T03:25:03.274Z,9.77
2019-04-19T03:27:20.338Z,9.79
2019-04-19T03:29:45.523Z,9.66
2019-04-19T03:35:06.480Z,9.83
2019-04-19T03:37:32.643Z,9.76
2019-04-19T03:40:06.283Z,9.80
2019-04-19T03:42:37.617Z,9.70
2019-04-19T03:45:08.753Z,9.54
2019-04-19T03:47:38.089Z,9.36
2019-04-19T03:50:04.451Z,9.55
2019-04-19T03:52:35.760Z,9.51
2019-04-19T03:55:04.952Z,9.34
2019-04-19T03:57:30.297Z,9.20
2019-04-19T03:59:45.871Z,9.44
2019-04-19T04:02:19.978Z,9.26
2019-04-19T04:04:52.655Z,9.37
2019-04-19T04:07:20.818Z,9.24
2019-04-19T04:09:49.727Z,9.17
2019-04-19T04:12:32.203Z,9.32
2019-04-19T04:15:17.909Z,9.27
2019-04-19T04:17:37.405Z,9.28
2019-04-19T04:20:07.459Z,9.31
2019-04-19T04:22:39.047Z,9.21
2019-04-19T04:25:13.358Z,9.20
2019-04-19T04:27:49.486Z,9.11
2019-04-19T04:30:18.549Z,9.35
2019-04-19T04:32:52.822Z,9.43
2019-04-19T04:35:24.325Z,9.41
2019-04-19T04:37:51.448Z,9.39
2019-04-19T04:40:08.452Z,9.67
2019-04-19T04:42:45.259Z,9.54
2019-04-19T04:45:28.756Z,9.49
2019-04-19T04:48:07.772Z,9.53
2019-04-19T04:51:00.540Z,9.51
2019-04-19T04:53:15.659Z,9.57
2019-04-19T04:55:58.189Z,9.53
2019-04-19T04:58:31.964Z,9.57
2019-04-19T05:01:02.412Z,9.56
2019-04-19T05:03:43.302Z,9.69
2019-04-19T05:06:16.805Z,9.81
2019-04-19T05:08:47.618Z,9.79
2019-04-19T05:11:16.770Z,9.92
2019-04-19T05:13:43.357Z,9.82
2019-04-19T05:16:25.171Z,9.94
2019-04-19T05:18:47.158Z,9.88
2019-04-19T05:21:17.857Z,10.04
2019-04-19T05:23:47.767Z,10.20
2019-04-19T05:26:29.281Z,10.30
2019-04-19T05:28:47.699Z,10.37
2019-04-19T05:31:04.969Z,10.36
2019-04-19T05:33:46.246Z,10.44
2019-04-19T05:36:17.875Z,10.95
2019-04-19T05:38:57.633Z,10.82
2019-04-19T05:41:34.339Z,10.79
2019-04-19T05:44:19.816Z,11.02
2019-04-19T05:46:47.031Z,10.99
2019-04-19T05:49:08.018Z,11.13
2019-04-19T05:51:43.655Z,11.28
2019-04-19T05:53:55.092Z,11.29
2019-04-19T05:56:22.207Z,11.34
2019-04-19T05:59:01.182Z,11.40
2019-04-19T06:01:43.132Z,11.65
2019-04-19T06:04:13.020Z,11.60
2019-04-19T06:06:44.581Z,11.59
2019-04-19T06:08:51.971Z,11.72
2019-04-19T06:11:26.410Z,11.69
2019-04-19T06:14:12.637Z,11.73
2019-04-19T06:16:35.052Z,11.90
2019-04-19T06:19:09.767Z,12.10
2019-04-19T06:21:36.733Z,12.08
2019-04-19T06:24:20.485Z,12.21
2019-04-19T06:29:10.632Z,12.60
2019-04-19T06:31:48.883Z,12.58
2019-04-19T06:34:10.302Z,12.71
2019-04-19T06:36:23.017Z,12.83
2019-04-19T06:38:52.612Z,13.03
2019-04-19T06:41:23.818Z,13.17
2019-04-19T06:44:03.969Z,13.17
2019-04-19T06:46:36.424Z,13.40
2019-04-19T06:48:59.668Z,13.64
2019-04-19T06:51:28.830Z,13.64
2019-04-19T06:53:57.397Z,14.01
2019-04-19T06:56:28.657Z,13.94
2019-04-19T06:59:06.168Z,14.12
2019-04-19T07:01:33.641Z,14.23
2019-04-19T07:03:53.659Z,14.33
2019-04-19T07:06:36.450Z,14.40
2019-04-19T07:09:31.301Z,14.55
2019-04-19T07:11:47.439Z,14.77
2019-04-19T07:14:01.716Z,14.84
2019-04-19T07:16:46.794Z,15.07
2019-04-19T07:19:13.390Z,14.94
2019-04-19T07:21:42.232Z,15.12
2019-04-19T07:24:16.173Z,15.22
2019-04-19T07:26:45.506Z,15.61
2019-04-19T07:28:53.632Z,15.69
2019-04-19T07:31:21.918Z,15.73
2019-04-19T07:34:03.560Z,15.79
2019-04-19T07:36:40.156Z,15.89
2019-04-19T07:39:09.625Z,16.04
2019-04-19T07:41:38.338Z,16.39
2019-04-19T07:44:07.327Z,16.31
2019-04-19T07:46:46.667Z,16.70
2019-04-19T07:48:56.068Z,16.60
2019-04-19T07:51:30.911Z,16.56
2019-04-19T07:53:56.748Z,16.91
2019-04-19T07:59:18.048Z,17.24
2019-04-19T08:02:04.368Z,17.37
2019-04-19T08:06:53.483Z,17.60
2019-04-19T08:09:34.800Z,17.71
2019-04-19T08:29:13.264Z,18.20
2019-04-19T08:31:27.586Z,18.51
2019-04-19T08:33:56.431Z,18.42
2019-04-19T08:36:32.273Z,18.72
2019-04-19T08:39:13.868Z,18.75
2019-04-19T08:41:39.331Z,18.88
2019-04-19T08:44:10.557Z,18.64
2019-04-19T08:46:32.655Z,18.85
2019-04-19T08:49:23.827Z,19.28
2019-04-19T08:51:52.244Z,19.26
2019-04-19T08:54:41.193Z,19.32
2019-04-19T08:56:57.481Z,19.21
2019-04-19T08:59:44.024Z,19.28
2019-04-19T09:02:11.192Z,19.22
2019-04-19T09:04:42.603Z,19.27
2019-04-19T09:07:34.015Z,19.77
2019-04-19T09:09:49.512Z,19.73
2019-04-19T09:12:12.230Z,19.69
2019-04-19T09:14:39.577Z,19.69
2019-04-19T09:17:33.174Z,20.03
2019-04-19T09:20:03.243Z,20.15
2019-04-19T09:22:14.575Z,20.22
2019-04-19T09:24:39.797Z,20.21
2019-04-19T09:27:10.138Z,20.22
2019-04-19T09:29:45.702Z,20.67
2019-04-19T09:32:05.876Z,20.50
2019-04-19T09:34:28.022Z,21.59
2019-04-19T09:37:08.934Z,20.79
2019-04-19T09:39:36.101Z,20.37
2019-04-19T09:42:02.199Z,20.32
2019-04-19T09:44:34.760Z,20.79
2019-04-19T09:46:57.111Z,21.12
2019-04-19T09:49:46.245Z,21.27
2019-04-19T09:52:23.816Z,21.09
2019-04-19T09:54:51.509Z,20.54
2019-04-19T09:57:11.190Z,20.70
2019-04-19T09:59:31.187Z,21.27
2019-04-19T10:02:00.646Z,21.27
2019-04-19T10:04:27.202Z,21.36
2019-04-19T10:06:56.910Z,21.35
2019-04-19T10:09:26.059Z,21.00
2019-04-19T10:11:58.718Z,21.40
2019-04-19T10:14:25.766Z,21.60
2019-04-19T10:16:55.715Z,21.47
2019-04-19T10:19:24.576Z,21.32
2019-04-19T10:21:56.276Z,21.26
2019-04-19T10:24:26.495Z,21.28
2019-04-19T10:27:05.554Z,21.27
2019-04-19T10:29:38.216Z,21.26
2019-04-19T10:32:22.626Z,21.58
2019-04-19T10:34:52.398Z,22.87
2019-04-19T10:37:21.860Z,22.25
2019-04-19T10:39:51.805Z,22.36
2019-04-19T10:42:20.870Z,22.32
2019-04-19T10:44:50.281Z,22.49
2019-04-19T10:47:18.836Z,22.53
2019-04-19T10:49:53.679Z,22.42
2019-04-19T10:52:21.729Z,21.79
2019-04-19T10:54:51.625Z,22.03
2019-04-19T10:57:21.420Z,22.50
2019-04-19T10:59:52.370Z,23.02
2019-04-19T11:02:24.964Z,22.76
2019-04-19T11:04:53.132Z,23.13
2019-04-19T11:07:23.505Z,23.29
2019-04-19T11:09:55.297Z,23.35
2019-04-19T11:12:24.495Z,22.91
2019-04-19T11:14:53.042Z,23.65
2019-04-19T11:17:21.410Z,23.91
2019-04-19T11:20:04.692Z,23.84
2019-04-19T11:22:21.485Z,23.80
2019-04-19T11:24:50.128Z,23.48
2019-04-19T11:27:19.258Z,23.88
2019-04-19T11:29:48.565Z,23.79
2019-04-19T11:32:19.886Z,25.14
2019-04-19T11:34:51.250Z,25.58
2019-04-19T11:37:20.224Z,24.31
2019-04-19T11:39:49.023Z,26.01
2019-04-19T11:42:17.614Z,24.66
2019-04-19T11:44:46.211Z,24.61
2019-04-19T11:47:15.325Z,24.22
2019-04-19T11:49:45.503Z,24.67
2019-04-19T11:52:16.678Z,24.98
2019-04-19T11:54:46.755Z,24.74
2019-04-19T11:57:20.613Z,24.45
2019-04-19T11:59:54.090Z,25.43
2019-04-19T12:02:29.048Z,26.00
2019-04-19T12:04:59.796Z,26.23
2019-04-19T12:07:28.669Z,28.41
2019-04-19T12:09:56.980Z,27.55
2019-04-19T12:12:25.442Z,29.01
2019-04-19T12:14:53.793Z,27.02
2019-04-19T12:17:23.047Z,27.78
2019-04-19T12:19:57.146Z,28.13
2019-04-19T12:22:21.757Z,28.01
2019-04-19T12:24:53.285Z,29.89
2019-04-19T12:27:21.283Z,28.09
2019-04-19T12:29:52.403Z,28.82
2019-04-19T12:32:21.445Z,27.83
2019-04-19T12:34:50.840Z,27.16
2019-04-19T12:37:19.558Z,27.86
2019-04-19T12:39:48.609Z,28.58
2019-04-19T12:42:31.729Z,28.87
2019-04-19T12:45:00.311Z,27.25
2019-04-19T12:47:29.029Z,28.44
2019-04-19T12:50:02.722Z,29.25
2019-04-19T12:52:28.174Z,28.86
2019-04-19T12:54:57.009Z,29.19
2019-04-19T12:57:27.873Z,27.39
2019-04-19T12:59:56.500Z,26.41
2019-04-19T13:02:42.422Z,27.56
2019-04-19T13:05:26.684Z,26.24
2019-04-19T13:07:55.163Z,30.72
2019-04-19T13:10:24.664Z,30.13
2019-04-19T13:12:54.020Z,29.91
2019-04-19T13:15:22.371Z,31.14
2019-04-19T13:17:51.859Z,30.01
2019-04-19T13:20:26.406Z,30.85
2019-04-19T13:22:50.746Z,29.85
2019-04-19T13:25:19.949Z,30.52
2019-04-19T13:27:54.193Z,31.01
2019-04-19T13:30:29.500Z,30.27
2019-04-19T13:32:52.171Z,30.06
2019-04-19T13:35:21.299Z,29.50
2019-04-19T13:37:57.053Z,31.19
2019-04-19T13:40:28.306Z,27.92
2019-04-19T13:42:58.642Z,26.71
2019-04-19T13:45:31.332Z,29.92
2019-04-19T13:47:58.605Z,27.56
2019-04-19T13:50:33.131Z,27.66
2019-04-19T13:52:57.102Z,28.52
2019-04-19T13:55:26.569Z,27.86
2019-04-19T13:57:55.678Z,28.06
2019-04-19T14:00:44.743Z,28.91
2019-04-19T14:03:13.767Z,27.29
2019-04-19T14:05:42.321Z,29.17
2019-04-19T14:08:11.259Z,29.98
2019-04-19T14:10:41.227Z,30.32
2019-04-19T14:13:10.555Z,28.56
2019-04-19T14:15:40.779Z,29.39
2019-04-19T14:18:10.837Z,29.05
2019-04-19T14:20:43.974Z,31.30
2019-04-19T14:23:09.892Z,28.64
2019-04-19T14:25:39.142Z,31.23
2019-04-19T14:28:07.864Z,29.79
2019-04-19T14:30:37.393Z,29.53
2019-04-19T14:33:06.333Z,30.95
2019-04-19T14:35:34.739Z,28.79
2019-04-19T14:38:03.350Z,27.31
2019-04-19T14:40:33.330Z,27.52
2019-04-19T14:43:02.561Z,28.98
2019-04-19T14:45:32.411Z,29.27
2019-04-19T14:48:01.019Z,28.56
2019-04-19T14:50:44.895Z,29.56
2019-04-19T14:53:01.563Z,29.63
2019-04-19T14:55:31.990Z,28.97
2019-04-19T14:58:01.068Z,30.09
2019-04-19T15:00:30.703Z,28.78
2019-04-19T15:03:01.322Z,28.12
2019-04-19T15:05:34.233Z,29.84
2019-04-19T15:08:02.531Z,30.13
2019-04-19T15:10:31.512Z,30.03
2019-04-19T15:13:00.953Z,29.92
2019-04-19T15:15:29.722Z,30.77
2019-04-19T15:17:58.078Z,30.28
2019-04-19T15:20:27.003Z,30.15
2019-04-19T15:22:56.014Z,29.49
2019-04-19T15:25:27.763Z,30.70
2019-04-19T15:27:57.047Z,28.52
2019-04-19T15:30:28.930Z,30.14
2019-04-19T15:32:58.360Z,30.58
2019-04-19T15:35:27.798Z,29.85
2019-04-19T15:37:56.384Z,28.94
2019-04-19T15:40:25.823Z,28.32
2019-04-19T15:42:54.847Z,28.96
2019-04-19T15:45:25.211Z,29.68
2019-04-19T15:47:54.919Z,27.78
2019-04-19T15:50:24.387Z,29.53
2019-04-19T15:52:53.756Z,29.38
2019-04-19T15:55:24.017Z,29.41
2019-04-19T15:57:52.555Z,29.48
2019-04-19T16:00:27.972Z,29.05
2019-04-19T16:03:02.181Z,29.85
2019-04-19T16:05:36.009Z,31.23
2019-04-19T16:08:11.843Z,30.36
2019-04-19T16:10:48.645Z,31.53
2019-04-19T16:13:18.028Z,30.61
2019-04-19T16:15:47.778Z,31.20
2019-04-19T16:18:16.195Z,30.96
2019-04-19T16:20:47.230Z,30.10
2019-04-19T16:23:14.527Z,29.54
2019-04-19T16:25:44.239Z,29.54
2019-04-19T16:28:13.023Z,30.05
2019-04-19T16:30:42.105Z,31.18
2019-04-19T16:33:11.498Z,30.37
2019-04-19T16:35:40.409Z,30.10
2019-04-19T16:38:09.873Z,29.67
2019-04-19T16:40:38.533Z,30.46
2019-04-19T16:43:07.743Z,29.95
2019-04-19T16:45:37.623Z,28.73
2019-04-19T16:48:07.800Z,31.05
2019-04-19T16:50:36.631Z,30.26
2019-04-19T16:53:06.473Z,30.96
2019-04-19T16:55:35.954Z,30.79
2019-04-19T16:58:06.202Z,29.48
2019-04-19T17:00:42.767Z,28.88
2019-04-19T17:03:11.790Z,29.24
2019-04-19T17:05:40.249Z,28.43
2019-04-19T17:08:09.363Z,29.24
2019-04-19T17:10:38.705Z,28.51
2019-04-19T17:13:07.020Z,28.40
2019-04-19T17:15:52.973Z,28.05
2019-04-19T17:18:22.965Z,28.26
2019-04-19T17:20:55.585Z,27.85
2019-04-19T17:23:24.439Z,27.68
2019-04-19T17:25:53.064Z,27.14
2019-04-19T17:28:21.583Z,27.52
2019-04-19T17:30:50.527Z,26.62
2019-04-19T17:33:20.038Z,25.99
2019-04-19T17:35:48.506Z,26.18
2019-04-19T17:39:47.051Z,26.21
2019-04-19T17:40:46.952Z,25.30
2019-04-19T17:43:15.294Z,25.33
2019-04-19T17:45:44.338Z,24.06
2019-04-19T17:48:12.559Z,24.02
2019-04-19T17:50:41.889Z,22.73
2019-04-19T17:53:10.740Z,22.70
2019-04-19T17:55:44.424Z,22.35
2019-04-19T17:58:09.713Z,21.79
2019-04-19T18:00:38.229Z,21.60
2019-04-19T18:03:07.053Z,21.37
2019-04-19T18:05:36.500Z,20.78
2019-04-19T18:08:06.410Z,20.77
2019-04-19T18:10:43.303Z,20.63
2019-04-19T18:13:05.375Z,20.27
2019-04-19T18:15:34.970Z,20.22
2019-04-19T18:18:06.805Z,20.08
2019-04-19T18:20:34.938Z,20.09
2019-04-19T18:23:08.676Z,19.95
2019-04-19T18:25:37.035Z,19.77
2019-04-19T18:28:07.107Z,19.73
2019-04-19T18:30:42.334Z,19.35
2019-04-19T18:33:06.285Z,19.48
2019-04-19T18:35:35.851Z,19.35
2019-04-19T18:38:08.647Z,19.00
2019-04-19T18:40:35.378Z,19.13
2019-04-19T18:43:16.254Z,19.02
2019-04-19T18:45:37.630Z,18.79
2019-04-19T18:48:04.003Z,18.59
2019-04-19T18:50:37.176Z,18.48
2019-04-19T18:53:12.026Z,18.52
2019-04-19T18:55:39.472Z,18.55
2019-04-19T18:58:02.591Z,18.49
2019-04-19T19:00:35.638Z,18.37
2019-04-19T19:03:03.678Z,18.44
2019-04-19T19:05:35.785Z,18.23
2019-04-19T19:08:07.641Z,18.20
2019-04-19T19:10:39.838Z,18.03
2019-04-19T19:13:02.390Z,17.82
2019-04-19T19:15:40.874Z,17.80
2019-04-19T19:18:02.938Z,17.83
2019-04-19T19:20:41.687Z,17.88
2019-04-19T19:23:21.334Z,17.87
2019-04-19T19:25:49.224Z,17.59
2019-04-19T19:28:10.583Z,17.71
2019-04-19T19:30:40.594Z,17.83
2019-04-19T19:33:15.281Z,17.63
2019-04-19T19:35:46.684Z,17.77
2019-04-19T19:38:15.534Z,17.73
2019-04-19T19:40:55.396Z,17.57
2019-04-19T19:43:29.333Z,17.29
2019-04-19T19:45:53.989Z,17.35
2019-04-19T19:48:28.589Z,17.28
2019-04-19T19:51:08.460Z,17.34
2019-04-19T19:53:44.522Z,17.19
2019-04-19T19:56:11.194Z,17.00
2019-04-19T19:58:22.211Z,16.91
2019-04-19T20:01:00.544Z,17.11
2019-04-19T20:03:21.832Z,16.93
2019-04-19T20:05:44.181Z,16.76
2019-04-19T20:08:19.713Z,16.72
2019-04-19T20:10:45.832Z,16.71
2019-04-19T20:13:16.157Z,16.77
2019-04-19T20:15:44.585Z,16.62
2019-04-19T20:18:13.169Z,16.32
2019-04-19T20:20:44.286Z,16.03
2019-04-19T20:23:22.602Z,16.00
2019-04-19T20:25:47.514Z,15.91
2019-04-19T20:28:16.317Z,15.80
2019-04-19T20:30:46.378Z,15.89
2019-04-19T20:33:13.403Z,15.67
2019-04-19T20:35:45.004Z,15.36
2019-04-19T20:38:16.793Z,15.68
2019-04-19T20:40:51.079Z,15.55
2019-04-19T20:43:30.583Z,15.28
2019-04-19T20:45:46.208Z,15.36
2019-04-19T20:48:17.867Z,15.22
2019-04-19T20:50:51.766Z,15.22
2019-04-19T20:53:32.449Z,15.01
2019-04-19T20:56:31.414Z,15.13
2019-04-19T20:58:33.241Z,14.98
2019-04-19T21:00:54.907Z,15.21
2019-04-19T21:03:28.342Z,15.06
2019-04-19T21:05:54.923Z,15.04
2019-04-19T21:08:26.251Z,14.87
2019-04-19T21:10:58.913Z,14.97
2019-04-19T21:13:25.198Z,15.03
2019-04-19T21:15:54.402Z,14.98
2019-04-19T21:18:25.808Z,14.91
2019-04-19T21:20:55.734Z,14.64
2019-04-19T21:23:27.224Z,14.63
2019-04-19T21:25:57.414Z,14.83
2019-04-19T21:28:32.526Z,15.04
2019-04-19T21:30:56.262Z,14.75
2019-04-19T21:33:24.732Z,14.45
2019-04-19T21:36:00.220Z,14.37
2019-04-19T21:38:25.052Z,14.57
2019-04-19T21:40:53.480Z,14.37
2019-04-19T21:43:28.411Z,14.33
2019-04-19T21:45:54.853Z,14.42
2019-04-19T21:48:26.848Z,14.28
2019-04-19T21:50:53.730Z,14.40
2019-04-19T21:53:29.412Z,14.53
2019-04-19T21:56:03.232Z,14.68
2019-04-19T21:58:25.703Z,14.67
2019-04-19T22:01:03.629Z,14.27
2019-04-19T22:03:30.423Z,14.26
2019-04-19T22:06:04.068Z,14.49
2019-04-19T22:08:34.739Z,14.31
2019-04-19T22:11:00.403Z,14.36
2019-04-19T22:13:33.319Z,14.37
2019-04-19T22:16:01.695Z,14.37
2019-04-19T22:18:32.341Z,14.66
2019-04-19T22:21:02.869Z,14.37
2019-04-19T22:23:29.236Z,13.99
2019-04-19T22:26:08.693Z,14.19
2019-04-19T22:28:27.944Z,13.89
2019-04-19T22:30:56.553Z,14.07
2019-04-19T22:33:25.098Z,14.14
2019-04-19T22:35:57.972Z,13.88
2019-04-19T22:38:24.164Z,13.99
2019-04-19T22:40:54.738Z,14.25
2019-04-19T22:43:24.606Z,13.96
2019-04-19T22:46:00.150Z,13.67
2019-04-19T22:48:23.709Z,13.93
2019-04-19T22:50:58.246Z,13.75
2019-04-19T22:53:30.370Z,13.40
2019-04-19T22:56:06.739Z,13.98
2019-04-19T22:58:28.169Z,13.60
2019-04-19T23:00:54.441Z,13.58
2019-04-19T23:03:30.137Z,13.73
2019-04-19T23:05:54.898Z,13.99
2019-04-19T23:08:30.140Z,13.84
2019-04-19T23:10:59.080Z,13.91
2019-04-19T23:13:25.778Z,14.04
2019-04-19T23:15:59.985Z,14.17
2019-04-19T23:18:26.723Z,13.82
2019-04-19T23:20:57.655Z,13.62
2019-04-19T23:23:29.785Z,13.67
2019-04-19T23:26:08.932Z,13.59
2019-04-19T23:28:31.635Z,13.29
2019-04-19T23:31:00.621Z,13.37
2019-04-19T23:33:26.563Z,13.41
2019-04-19T23:35:55.526Z,13.29
2019-04-19T23:38:27.701Z,13.28
2019-04-19T23:40:55.172Z,13.23
2019-04-19T23:43:29.584Z,13.09
2019-04-19T23:45:54.151Z,13.29
2019-04-19T23:48:26.434Z,13.19
2019-04-19T23:50:52.672Z,12.55
2019-04-19T23:53:23.221Z,12.58
2019-04-19T23:55:50.999Z,12.56
2019-04-19T23:58:28.164Z,12.67
